createdAt,value
2017-09-22T00:02:01.678Z,9.20
2017-09-22T00:04:28.152Z,9.10
2017-09-22T00:06:54.594Z,9.10
2017-09-22T00:09:21.789Z,8.90
2017-09-22T00:11:48.238Z,8.90
2017-09-22T00:14:14.692Z,9.00
2017-09-22T00:16:41.114Z,8.70
2017-09-22T00:19:07.584Z,8.80
2017-09-22T00:21:34.745Z,8.40
2017-09-22T00:24:01.173Z,8.40
2017-09-22T00:26:27.605Z,8.30
2017-09-22T00:28:54.833Z,8.30
2017-09-22T00:31:21.340Z,8.30
2017-09-22T00:33:47.807Z,8.40
2017-09-22T00:36:14.965Z,8.50
2017-09-22T00:38:42.270Z,8.50
2017-09-22T00:41:08.689Z,8.50
2017-09-22T00:43:35.128Z,8.50
2017-09-22T00:46:01.595Z,8.60
2017-09-22T00:48:28.099Z,8.50
2017-09-22T00:50:54.581Z,8.50
2017-09-22T00:53:21.048Z,8.50
2017-09-22T00:55:47.525Z,8.40
2017-09-22T00:58:13.961Z,8.30
2017-09-22T01:00:40.404Z,8.30
2017-09-22T01:03:07.581Z,8.30
2017-09-22T01:05:34.081Z,8.30
2017-09-22T01:08:01.304Z,8.30
2017-09-22T01:10:27.704Z,8.20
2017-09-22T01:12:54.093Z,8.20
2017-09-22T01:15:20.536Z,8.20
2017-09-22T01:17:47.726Z,8.20
2017-09-22T01:20:14.167Z,8.20
2017-09-22T01:22:40.645Z,8.00
2017-09-22T01:25:07.083Z,8.10
2017-09-22T01:27:33.503Z,8.00
2017-09-22T01:29:59.920Z,8.00
2017-09-22T01:32:26.385Z,7.80
2017-09-22T01:34:53.546Z,7.90
2017-09-22T01:37:20.002Z,7.90
2017-09-22T01:39:46.413Z,8.00
2017-09-22T01:42:13.597Z,8.00
2017-09-22T01:44:40.029Z,8.00
2017-09-22T01:47:06.437Z,8.00
2017-09-22T01:49:32.975Z,8.00
2017-09-22T01:51:59.510Z,8.00
2017-09-22T01:54:25.948Z,8.00
2017-09-22T01:56:52.376Z,7.90
2017-09-22T01:59:18.837Z,7.90
2017-09-22T02:01:45.277Z,7.90
2017-09-22T02:04:11.752Z,7.90
2017-09-22T02:06:38.225Z,7.90
2017-09-22T02:09:04.698Z,7.80
2017-09-22T02:11:31.134Z,7.80
2017-09-22T02:13:57.553Z,7.70
2017-09-22T02:16:24.010Z,7.70
2017-09-22T02:18:50.414Z,7.50
2017-09-22T02:21:16.894Z,7.40
2017-09-22T02:23:44.045Z,7.70
2017-09-22T02:26:10.479Z,7.60
2017-09-22T02:28:37.672Z,7.60
2017-09-22T02:31:04.105Z,7.60
2017-09-22T02:33:30.629Z,7.60
2017-09-22T02:35:57.061Z,7.50
2017-09-22T02:38:23.530Z,7.50
2017-09-22T02:40:49.993Z,7.40
2017-09-22T02:43:17.152Z,7.40
2017-09-22T02:45:43.569Z,7.40
2017-09-22T02:48:10.756Z,7.30
2017-09-22T02:50:37.165Z,7.30
2017-09-22T02:53:03.639Z,7.40
2017-09-22T02:55:30.065Z,7.30
2017-09-22T02:57:56.509Z,7.30
2017-09-22T03:00:22.992Z,7.30
2017-09-22T03:02:49.449Z,7.30
2017-09-22T03:05:15.897Z,7.30
2017-09-22T03:07:42.345Z,7.10
2017-09-22T03:10:08.772Z,7.10
2017-09-22T03:12:36.030Z,7.00
2017-09-22T03:15:02.549Z,7.10
2017-09-22T03:17:29.021Z,7.00
2017-09-22T03:19:55.492Z,7.00
2017-09-22T03:22:22.654Z,7.20
2017-09-22T03:24:49.046Z,7.10
2017-09-22T03:27:16.237Z,7.00
2017-09-22T03:29:42.652Z,7.00
2017-09-22T03:32:09.826Z,7.00
2017-09-22T03:34:36.245Z,6.90
2017-09-22T03:37:02.705Z,6.90
2017-09-22T03:39:29.165Z,7.00
2017-09-22T03:41:55.578Z,6.70
2017-09-22T03:44:21.979Z,6.80
2017-09-22T03:46:48.462Z,6.80
2017-09-22T03:49:14.868Z,6.80
2017-09-22T03:51:41.281Z,6.90
2017-09-22T03:54:07.733Z,6.80
2017-09-22T03:56:34.181Z,6.80
2017-09-22T03:59:00.580Z,6.80
2017-09-22T04:01:27.064Z,6.70
2017-09-22T04:03:53.503Z,6.60
2017-09-22T04:06:20.682Z,6.70
2017-09-22T04:08:47.140Z,6.70
2017-09-22T04:11:13.574Z,6.60
2017-09-22T04:13:39.981Z,6.60
2017-09-22T04:16:06.509Z,6.60
2017-09-22T04:18:33.742Z,6.50
2017-09-22T04:21:00.145Z,6.40
2017-09-22T04:23:26.535Z,6.50
2017-09-22T04:25:52.983Z,6.50
2017-09-22T04:28:19.433Z,6.50
2017-09-22T04:30:45.864Z,6.40
2017-09-22T04:33:12.318Z,6.40
2017-09-22T04:35:38.748Z,6.40
2017-09-22T04:38:05.201Z,6.30
2017-09-22T04:40:32.409Z,6.30
2017-09-22T04:42:58.825Z,6.20
2017-09-22T04:45:25.260Z,6.40
2017-09-22T04:47:51.694Z,6.30
2017-09-22T04:50:18.134Z,6.40
2017-09-22T04:52:44.538Z,6.40
2017-09-22T04:55:10.948Z,6.30
2017-09-22T04:57:38.144Z,6.30
2017-09-22T05:00:04.567Z,6.20
2017-09-22T05:02:31.016Z,6.20
2017-09-22T05:04:57.469Z,6.20
2017-09-22T05:07:24.481Z,6.20
2017-09-22T05:09:50.916Z,6.10
2017-09-22T05:12:17.366Z,6.10
2017-09-22T05:14:43.812Z,6.10
2017-09-22T05:17:10.312Z,6.10
2017-09-22T05:19:36.800Z,6.10
2017-09-22T05:22:03.257Z,6.10
2017-09-22T05:24:30.410Z,6.10
2017-09-22T05:26:57.574Z,6.10
2017-09-22T05:29:24.760Z,6.10
2017-09-22T05:31:51.221Z,6.10
2017-09-22T05:34:17.651Z,6.10
2017-09-22T05:36:44.053Z,6.20
2017-09-22T05:39:10.498Z,6.20
2017-09-22T05:41:36.943Z,6.20
2017-09-22T05:44:04.202Z,6.20
2017-09-22T05:46:30.637Z,6.20
2017-09-22T05:48:57.093Z,6.30
2017-09-22T05:51:24.273Z,6.50
2017-09-22T05:53:50.689Z,6.50
2017-09-22T05:56:17.141Z,6.70
2017-09-22T05:58:43.585Z,7.00
2017-09-22T06:01:10.004Z,7.10
2017-09-22T06:03:36.420Z,7.20
2017-09-22T06:06:02.937Z,7.40
2017-09-22T06:08:30.085Z,7.60
2017-09-22T06:10:57.245Z,7.90
2017-09-22T06:13:23.722Z,7.80
2017-09-22T06:15:50.161Z,8.00
2017-09-22T06:18:16.588Z,8.20
2017-09-22T06:20:43.028Z,8.50
2017-09-22T06:23:09.462Z,8.70
2017-09-22T06:25:35.917Z,8.90
2017-09-22T06:28:02.382Z,9.10
2017-09-22T06:30:28.813Z,9.40
2017-09-22T06:32:55.229Z,9.50
2017-09-22T06:35:22.456Z,9.90
2017-09-22T06:37:48.882Z,9.80
2017-09-22T06:40:16.129Z,10.20
2017-09-22T06:42:42.585Z,10.20
2017-09-22T06:45:09.021Z,10.40
2017-09-22T06:47:35.458Z,10.60
2017-09-22T06:50:01.902Z,10.80
2017-09-22T06:52:29.077Z,11.30
2017-09-22T06:54:55.538Z,11.20
2017-09-22T06:57:22.025Z,11.50
2017-09-22T06:59:49.216Z,11.80
2017-09-22T07:02:15.658Z,11.80
2017-09-22T07:04:42.081Z,11.90
2017-09-22T07:07:08.575Z,12.30
2017-09-22T07:09:35.073Z,12.50
2017-09-22T07:12:02.301Z,13.20
2017-09-22T07:14:28.763Z,13.20
2017-09-22T07:16:55.165Z,13.60
2017-09-22T07:19:21.566Z,14.10
2017-09-22T07:21:48.010Z,14.60
2017-09-22T07:24:14.457Z,15.00
2017-09-22T07:26:40.901Z,15.30
2017-09-22T07:29:07.344Z,15.80
2017-09-22T07:31:33.776Z,16.20
2017-09-22T07:34:00.268Z,16.50
2017-09-22T07:36:26.684Z,16.90
2017-09-22T07:38:53.157Z,17.40
2017-09-22T07:41:19.632Z,17.50
2017-09-22T07:43:46.067Z,18.00
2017-09-22T07:46:12.489Z,18.40
2017-09-22T07:48:38.929Z,18.80
2017-09-22T07:51:05.332Z,19.30
2017-09-22T07:53:31.772Z,19.60
2017-09-22T07:55:58.233Z,19.90
2017-09-22T07:58:24.641Z,20.20
2017-09-22T08:00:51.069Z,20.40
2017-09-22T08:03:17.507Z,20.40
2017-09-22T08:05:44.754Z,20.60
2017-09-22T08:08:11.227Z,20.60
2017-09-22T08:10:37.720Z,20.70
2017-09-22T08:13:04.141Z,21.20
2017-09-22T08:15:30.632Z,21.20
2017-09-22T08:17:57.822Z,21.90
2017-09-22T08:20:24.237Z,21.80
2017-09-22T08:22:50.654Z,21.80
2017-09-22T08:25:17.827Z,22.20
2017-09-22T08:27:44.264Z,22.10
2017-09-22T08:30:10.693Z,22.40
2017-09-22T08:32:37.124Z,23.10
2017-09-22T08:35:03.585Z,23.80
2017-09-22T08:37:30.068Z,24.20
2017-09-22T08:39:57.235Z,25.10
2017-09-22T08:42:23.678Z,25.10
2017-09-22T08:44:50.149Z,25.40
2017-09-22T08:47:16.597Z,25.80
2017-09-22T08:49:43.127Z,26.20
2017-09-22T08:52:09.552Z,26.70
2017-09-22T08:54:36.001Z,26.50
2017-09-22T08:57:02.424Z,26.70
2017-09-22T08:59:29.647Z,27.10
2017-09-22T09:01:56.079Z,27.10
2017-09-22T09:04:23.252Z,27.90
2017-09-22T09:06:49.709Z,27.90
2017-09-22T09:09:16.881Z,27.80
2017-09-22T09:11:43.374Z,27.70
2017-09-22T09:14:09.841Z,27.80
2017-09-22T09:16:37.000Z,29.30
2017-09-22T09:19:03.433Z,29.20
2017-09-22T09:21:29.914Z,29.80
2017-09-22T09:23:56.349Z,30.50
2017-09-22T09:26:22.802Z,30.70
2017-09-22T09:28:49.949Z,30.70
2017-09-22T09:31:16.367Z,30.60
2017-09-22T09:33:42.805Z,30.70
2017-09-22T09:36:09.275Z,30.10
2017-09-22T09:38:35.745Z,30.30
2017-09-22T09:41:02.174Z,29.90
2017-09-22T09:43:28.598Z,29.80
2017-09-22T09:45:55.061Z,29.70
2017-09-22T09:48:21.524Z,30.10
2017-09-22T09:50:47.938Z,30.00
2017-09-22T09:53:15.113Z,29.10
2017-09-22T09:55:41.582Z,29.00
2017-09-22T09:58:08.014Z,29.30
2017-09-22T10:00:34.526Z,29.10
2017-09-22T10:03:00.982Z,29.50
2017-09-22T10:05:27.450Z,29.30
2017-09-22T10:07:54.609Z,29.80
2017-09-22T10:10:21.850Z,29.60
2017-09-22T10:12:48.269Z,29.60
2017-09-22T10:15:14.719Z,29.20
2017-09-22T10:17:41.140Z,28.60
2017-09-22T10:20:07.594Z,28.50
2017-09-22T10:22:34.065Z,28.80
2017-09-22T10:25:00.469Z,28.90
2017-09-22T10:27:27.632Z,29.40
2017-09-22T10:29:54.111Z,29.30
2017-09-22T10:32:20.533Z,29.20
2017-09-22T10:34:47.007Z,29.70
2017-09-22T10:37:14.178Z,30.10
2017-09-22T10:39:40.618Z,30.10
2017-09-22T10:42:07.099Z,30.00
2017-09-22T10:44:33.533Z,30.00
2017-09-22T10:47:00.753Z,29.10
2017-09-22T10:49:27.217Z,29.00
2017-09-22T10:51:53.665Z,29.40
2017-09-22T10:54:20.832Z,29.10
2017-09-22T10:56:48.030Z,29.10
2017-09-22T10:59:14.486Z,29.10
2017-09-22T11:01:40.926Z,29.30
2017-09-22T11:04:07.364Z,29.40
2017-09-22T11:06:34.586Z,28.10
2017-09-22T11:09:01.045Z,28.10
2017-09-22T11:11:27.466Z,27.70
2017-09-22T11:13:53.928Z,27.00
2017-09-22T11:16:20.360Z,26.80
2017-09-22T11:18:47.526Z,25.70
2017-09-22T11:21:14.803Z,25.20
2017-09-22T11:23:41.256Z,25.10
2017-09-22T11:26:07.683Z,25.30
2017-09-22T11:28:34.106Z,24.90
2017-09-22T11:31:00.346Z,24.90
2017-09-22T11:33:26.762Z,24.50
2017-09-22T11:35:53.249Z,24.50
2017-09-22T11:38:19.757Z,24.30
2017-09-22T11:40:46.168Z,24.30
2017-09-22T11:43:12.569Z,24.20
2017-09-22T11:45:39.774Z,24.40
2017-09-22T11:48:06.181Z,24.40
2017-09-22T11:50:32.582Z,24.20
2017-09-22T11:52:59.055Z,24.20
2017-09-22T11:55:25.492Z,24.20
2017-09-22T11:57:51.938Z,23.90
2017-09-22T12:00:18.462Z,23.90
2017-09-22T12:02:44.935Z,23.60
2017-09-22T12:05:12.141Z,23.70
2017-09-22T12:07:38.589Z,23.60
2017-09-22T12:10:05.048Z,23.60
2017-09-22T12:12:32.193Z,22.90
2017-09-22T12:14:59.403Z,21.80
2017-09-22T12:17:25.869Z,21.80
2017-09-22T12:19:52.330Z,21.90
2017-09-22T12:22:19.509Z,22.10
2017-09-22T12:24:45.928Z,22.10
2017-09-22T12:27:12.373Z,22.30
2017-09-22T12:29:38.788Z,22.40
2017-09-22T12:32:05.230Z,22.40
2017-09-22T12:34:31.673Z,22.50
2017-09-22T12:36:58.151Z,22.30
2017-09-22T12:39:24.599Z,22.40
2017-09-22T12:41:51.784Z,22.60
2017-09-22T12:44:18.257Z,22.60
2017-09-22T12:46:44.712Z,22.60
2017-09-22T12:49:11.897Z,22.40
2017-09-22T12:51:38.384Z,22.30
2017-09-22T12:54:04.818Z,22.20
2017-09-22T12:56:32.018Z,22.00
2017-09-22T12:58:58.447Z,22.00
2017-09-22T13:01:24.966Z,21.90
2017-09-22T13:03:51.481Z,21.80
2017-09-22T13:06:18.689Z,21.90
2017-09-22T13:08:45.202Z,21.90
2017-09-22T13:11:11.690Z,21.90
2017-09-22T13:13:38.926Z,21.70
2017-09-22T13:16:06.109Z,21.70
2017-09-22T13:18:33.318Z,21.60
2017-09-22T13:20:59.798Z,21.60
2017-09-22T13:23:27.017Z,21.50
2017-09-22T13:25:53.487Z,21.40
2017-09-22T13:28:19.947Z,21.30
2017-09-22T13:30:46.409Z,21.30
2017-09-22T13:33:12.911Z,21.30
2017-09-22T13:35:39.322Z,21.20
2017-09-22T13:38:06.529Z,21.10
2017-09-22T13:40:32.993Z,21.00
2017-09-22T13:42:59.476Z,21.10
2017-09-22T13:45:25.940Z,20.90
2017-09-22T13:47:52.434Z,20.80
2017-09-22T13:50:18.869Z,20.60
2017-09-22T13:52:45.297Z,20.90
2017-09-22T13:55:11.781Z,20.90
2017-09-22T13:57:38.217Z,20.70
2017-09-22T14:00:04.739Z,20.70
2017-09-22T14:02:31.965Z,20.50
2017-09-22T14:04:58.422Z,20.50
2017-09-22T14:07:25.604Z,20.30
2017-09-22T14:09:52.028Z,20.30
2017-09-22T14:12:19.234Z,20.30
2017-09-22T14:14:45.680Z,20.30
2017-09-22T14:17:12.109Z,20.30
2017-09-22T14:19:38.591Z,20.30
2017-09-22T14:22:05.002Z,20.30
2017-09-22T14:24:32.297Z,20.20
2017-09-22T14:26:58.725Z,20.30
2017-09-22T14:29:25.873Z,20.10
2017-09-22T14:31:53.073Z,20.10
2017-09-22T14:34:19.549Z,20.10
2017-09-22T14:36:46.023Z,20.10
2017-09-22T14:39:12.488Z,20.20
2017-09-22T14:41:38.905Z,20.10
2017-09-22T14:44:05.369Z,20.10
2017-09-22T14:46:31.822Z,20.10
2017-09-22T14:48:58.288Z,19.90
2017-09-22T14:51:24.782Z,19.90
2017-09-22T14:53:51.945Z,19.80
2017-09-22T14:56:18.378Z,19.80
2017-09-22T14:58:45.593Z,19.90
2017-09-22T15:01:12.785Z,19.90
2017-09-22T15:03:39.222Z,19.90
2017-09-22T15:06:05.630Z,19.90
2017-09-22T15:08:32.786Z,19.80
2017-09-22T15:10:59.243Z,19.80
2017-09-22T15:13:25.693Z,19.80
2017-09-22T15:15:52.141Z,19.80
2017-09-22T15:18:18.609Z,19.80
2017-09-22T15:20:45.112Z,19.80
2017-09-22T15:23:11.557Z,19.90
2017-09-22T15:25:38.793Z,19.80
2017-09-22T15:28:05.285Z,19.80
2017-09-22T15:30:31.738Z,19.70
2017-09-22T15:32:58.174Z,19.80
2017-09-22T15:35:24.637Z,19.70
2017-09-22T15:37:51.077Z,19.80
2017-09-22T15:40:17.518Z,19.80
2017-09-22T15:42:43.975Z,19.80
2017-09-22T15:45:10.414Z,19.70
2017-09-22T15:47:36.865Z,19.70
2017-09-22T15:50:03.349Z,19.70
2017-09-22T15:52:29.838Z,19.60
2017-09-22T15:54:56.246Z,19.60
2017-09-22T15:57:22.661Z,19.80
2017-09-22T15:59:49.878Z,19.40
2017-09-22T16:02:16.277Z,19.50
2017-09-22T16:04:42.754Z,19.50
2017-09-22T16:07:09.195Z,19.50
2017-09-22T16:09:35.649Z,19.50
2017-09-22T16:12:02.820Z,19.50
2017-09-22T16:14:29.237Z,19.40
2017-09-22T16:16:55.744Z,19.40
2017-09-22T16:19:22.961Z,19.10
2017-09-22T16:21:50.161Z,19.00
2017-09-22T16:24:16.625Z,19.00
2017-09-22T16:26:43.073Z,19.00
2017-09-22T16:29:09.546Z,18.90
2017-09-22T16:31:36.734Z,18.90
2017-09-22T16:34:03.282Z,18.90
2017-09-22T16:36:29.793Z,19.00
2017-09-22T16:38:56.219Z,19.00
2017-09-22T16:41:23.486Z,18.90
2017-09-22T16:43:49.920Z,18.90
2017-09-22T16:46:16.382Z,19.00
2017-09-22T16:48:42.815Z,18.90
2017-09-22T16:51:09.278Z,18.80
2017-09-22T16:53:35.749Z,18.80
2017-09-22T16:56:02.214Z,18.70
2017-09-22T16:58:28.660Z,18.50
2017-09-22T17:00:55.072Z,18.50
2017-09-22T17:03:21.511Z,18.50
2017-09-22T17:05:48.010Z,18.40
2017-09-22T17:08:14.499Z,18.40
2017-09-22T17:10:40.941Z,18.30
2017-09-22T17:13:08.294Z,18.00
2017-09-22T17:15:34.738Z,18.10
2017-09-22T17:18:01.196Z,17.90
2017-09-22T17:20:27.676Z,17.80
2017-09-22T17:22:54.150Z,17.80
2017-09-22T17:25:21.330Z,17.60
2017-09-22T17:27:47.790Z,17.60
2017-09-22T17:30:14.248Z,17.50
2017-09-22T17:32:40.776Z,17.50
2017-09-22T17:35:07.246Z,17.50
2017-09-22T17:37:34.401Z,17.50
2017-09-22T17:40:00.818Z,17.60
2017-09-22T17:42:27.319Z,17.50
2017-09-22T17:44:53.746Z,17.50
2017-09-22T17:47:20.205Z,17.40
2017-09-22T17:49:47.415Z,17.30
2017-09-22T17:52:13.860Z,17.30
2017-09-22T17:54:40.285Z,17.30
2017-09-22T17:57:06.729Z,17.20
2017-09-22T17:59:33.161Z,17.20
2017-09-22T18:01:59.642Z,17.20
2017-09-22T18:04:26.082Z,17.20
2017-09-22T18:06:53.268Z,17.10
2017-09-22T18:09:19.756Z,17.10
2017-09-22T18:11:46.238Z,17.00
2017-09-22T18:14:12.763Z,17.00
2017-09-22T18:16:39.286Z,16.90
2017-09-22T18:19:05.741Z,16.60
2017-09-22T18:21:32.265Z,16.60
2017-09-22T18:23:58.808Z,16.50
2017-09-22T18:26:25.237Z,16.40
2017-09-22T18:28:51.661Z,16.30
2017-09-22T18:31:18.158Z,16.20
2017-09-22T18:33:45.342Z,15.40
2017-09-22T18:36:11.813Z,15.40
2017-09-22T18:38:39.046Z,14.80
2017-09-22T18:41:05.496Z,14.80
2017-09-22T18:43:31.913Z,14.60
2017-09-22T18:45:58.421Z,14.80
2017-09-22T18:48:24.925Z,14.80
2017-09-22T18:50:51.394Z,15.00
2017-09-22T18:53:17.882Z,15.00
2017-09-22T18:55:45.066Z,15.20
2017-09-22T18:58:11.498Z,15.10
2017-09-22T19:00:38.020Z,15.00
2017-09-22T19:03:04.506Z,15.10
2017-09-22T19:05:30.984Z,15.30
2017-09-22T19:07:57.416Z,15.30
2017-09-22T19:10:24.637Z,15.30
2017-09-22T19:12:51.858Z,15.20
2017-09-22T19:15:18.382Z,15.20
2017-09-22T19:17:44.817Z,15.20
2017-09-22T19:20:11.372Z,15.40
2017-09-22T19:22:37.874Z,15.40
2017-09-22T19:25:04.372Z,15.30
2017-09-22T19:27:31.551Z,15.30
2017-09-22T19:29:58.034Z,15.40
2017-09-22T19:32:24.469Z,15.30
2017-09-22T19:34:50.963Z,15.30
2017-09-22T19:37:17.446Z,15.30
2017-09-22T19:39:43.887Z,15.20
2017-09-22T19:42:11.117Z,15.10
2017-09-22T19:44:38.351Z,15.10
2017-09-22T19:47:05.536Z,15.00
2017-09-22T19:49:32.000Z,15.00
2017-09-22T19:51:58.428Z,14.90
2017-09-22T19:54:24.899Z,14.90
2017-09-22T19:56:51.421Z,14.80
2017-09-22T19:59:17.857Z,14.90
2017-09-22T20:01:44.405Z,14.30
2017-09-22T20:04:10.877Z,14.40
2017-09-22T20:06:37.426Z,14.40
2017-09-22T20:09:03.907Z,14.40
2017-09-22T20:11:30.366Z,14.50
2017-09-22T20:13:56.854Z,14.30
2017-09-22T20:16:23.322Z,14.40
2017-09-22T20:18:50.592Z,14.10
2017-09-22T20:21:17.901Z,13.80
2017-09-22T20:23:44.394Z,13.80
2017-09-22T20:26:11.638Z,13.50
2017-09-22T20:28:38.865Z,13.30
2017-09-22T20:31:06.027Z,13.40
2017-09-22T20:33:32.515Z,13.40
2017-09-22T20:35:58.982Z,13.60
2017-09-22T20:38:25.464Z,13.70
2017-09-22T20:40:51.897Z,13.80
2017-09-22T20:43:18.321Z,13.80
2017-09-22T20:45:44.772Z,13.80
2017-09-22T20:48:11.237Z,13.50
2017-09-22T20:50:38.398Z,12.70
2017-09-22T20:53:04.842Z,12.70
2017-09-22T20:55:31.290Z,13.00
2017-09-22T20:57:58.534Z,13.10
2017-09-22T21:00:25.037Z,13.10
2017-09-22T21:02:52.241Z,12.50
2017-09-22T21:05:18.729Z,12.50
2017-09-22T21:07:45.181Z,12.20
2017-09-22T21:10:11.630Z,12.00
2017-09-22T21:12:38.816Z,11.90
2017-09-22T21:15:05.265Z,11.80
2017-09-22T21:17:31.738Z,12.00
2017-09-22T21:19:58.978Z,11.90
2017-09-22T21:22:25.417Z,11.90
2017-09-22T21:24:51.874Z,11.90
2017-09-22T21:27:18.313Z,11.80
2017-09-22T21:29:45.483Z,11.80
2017-09-22T21:32:11.978Z,11.80
2017-09-22T21:34:38.498Z,11.70
2017-09-22T21:37:05.013Z,11.60
2017-09-22T21:39:31.462Z,11.60
2017-09-22T21:41:57.901Z,11.60
2017-09-22T21:44:24.353Z,11.50
2017-09-22T21:46:51.510Z,11.30
2017-09-22T21:49:18.665Z,11.30
2017-09-22T21:51:45.182Z,11.20
2017-09-22T21:54:11.618Z,11.40
2017-09-22T21:56:38.840Z,11.30
2017-09-22T21:59:05.333Z,11.30
2017-09-22T22:01:31.805Z,11.30
2017-09-22T22:04:04.441Z,11.30
2017-09-22T22:06:37.132Z,11.30
2017-09-22T22:09:03.788Z,11.10
2017-09-22T22:11:30.261Z,11.20
2017-09-22T22:13:56.762Z,11.10
2017-09-22T22:16:23.272Z,11.30
2017-09-22T22:18:49.789Z,11.50
2017-09-22T22:21:16.301Z,11.60
2017-09-22T22:23:42.809Z,11.50
2017-09-22T22:26:09.308Z,11.60
2017-09-22T22:28:35.774Z,11.30
2017-09-22T22:31:03.063Z,10.80
2017-09-22T22:33:29.541Z,10.70
2017-09-22T22:35:56.063Z,10.70
2017-09-22T22:38:22.584Z,10.60
2017-09-22T22:40:49.120Z,10.60
2017-09-22T22:43:15.677Z,10.50
2017-09-22T22:45:42.138Z,10.40
2017-09-22T22:48:08.602Z,10.40
2017-09-22T22:50:35.149Z,10.20
2017-09-22T22:53:01.616Z,10.30
2017-09-22T22:55:28.131Z,10.30
2017-09-22T22:57:54.655Z,10.30
2017-09-22T23:00:21.186Z,10.30
2017-09-22T23:02:47.712Z,10.40
2017-09-22T23:05:14.226Z,10.50
2017-09-22T23:07:41.445Z,10.40
2017-09-22T23:10:08.666Z,10.50
2017-09-22T23:12:35.165Z,10.40
2017-09-22T23:15:01.664Z,10.60
2017-09-22T23:17:28.137Z,10.60
2017-09-22T23:19:54.675Z,10.30
2017-09-22T23:22:21.865Z,10.00
2017-09-22T23:24:48.396Z,9.90
2017-09-22T23:27:14.985Z,9.80
2017-09-22T23:29:41.532Z,9.80
2017-09-22T23:32:08.043Z,9.80
2017-09-22T23:34:34.497Z,9.90
2017-09-22T23:37:01.744Z,9.90
2017-09-22T23:39:28.957Z,10.00
2017-09-22T23:41:55.419Z,9.90
2017-09-22T23:44:22.661Z,10.00
2017-09-22T23:46:49.225Z,10.00
2017-09-22T23:49:16.433Z,10.00
2017-09-22T23:51:42.890Z,10.00
2017-09-22T23:54:10.141Z,10.20
2017-09-22T23:56:36.604Z,10.30
2017-09-22T23:59:03.052Z,10.40
